Flugplatz Buckeburg Airport

Bericht für ETHB

vom 02.06. um 23:20 UTC

variable Windrichtung mit 1 kt

Sichtweite 10 km oder mehr

Temperatur 16.0°C

Taupunkt 10.0°C

Luftfeuchtigkeit 68%

Luftdruck 1010 hPa

ETHB 022320Z AUTO VRB01KT 9999 // ////// 16/10 Q1010 ///

Prognose für ETHB

vom 02.06. um 20:04 UTC

Am 02.06. zwischen 20:00 UTC und 05:00 UTC


Am 02.06. zwischen 20:00 UTC und 05:00 UTC

variable Windrichtung mit 3 kt

Sichtweite 10 km oder mehr

keine signifikanten Wettererscheinungen

aufgebrochene Bewölkung in 24000 ft

TAF ETHB 022004Z 0220/0305 VRB03KT 9999 NSW BKN240 TEMPO 02/A/ZEIT2//0204 VRB02KT 5000 MIFG BKN220
Impressum